sensor_id;sensor_type;location;lat;lon;timestamp;temperature;humidity
67358;HTU21D;54240;51.096;5.878;2023-11-21T00:01:03;9.41;-6.00
67358;HTU21D;54240;51.096;5.878;2023-11-21T00:03:30;9.42;-6.00
67358;HTU21D;54240;51.096;5.878;2023-11-21T00:05:56;9.42;-6.00
67358;HTU21D;54240;51.096;5.878;2023-11-21T00:08:22;9.44;-6.00
67358;HTU21D;54240;51.096;5.878;2023-11-21T00:10:48;9.48;-6.00
67358;HTU21D;54240;51.096;5.878;2023-11-21T00:13:14;9.52;-6.00
67358;HTU21D;54240;51.096;5.878;2023-11-21T00:15:40;9.60;-6.00
67358;HTU21D;54240;51.096;5.878;2023-11-21T00:18:06;9.92;-6.00
67358;HTU21D;54240;51.096;5.878;2023-11-21T00:20:32;9.95;-6.00
67358;HTU21D;54240;51.096;5.878;2023-11-21T00:22:58;9.85;-6.00
67358;HTU21D;54240;51.096;5.878;2023-11-21T00:25:25;9.84;-6.00
67358;HTU21D;54240;51.096;5.878;2023-11-21T00:27:52;9.90;-6.00
67358;HTU21D;54240;51.096;5.878;2023-11-21T00:30:18;9.92;-6.00
67358;HTU21D;54240;51.096;5.878;2023-11-21T00:32:45;9.78;-6.00
67358;HTU21D;54240;51.096;5.878;2023-11-21T00:35:11;9.82;-6.00
67358;HTU21D;54240;51.096;5.878;2023-11-21T00:37:37;9.85;-6.00
67358;HTU21D;54240;51.096;5.878;2023-11-21T00:40:06;9.88;-6.00
67358;HTU21D;54240;51.096;5.878;2023-11-21T00:42:34;9.94;-6.00
67358;HTU21D;54240;51.096;5.878;2023-11-21T00:45:00;10.05;-6.00
67358;HTU21D;54240;51.096;5.878;2023-11-21T00:47:25;10.10;-6.00
67358;HTU21D;54240;51.096;5.878;2023-11-21T00:49:51;9.85;-6.00
67358;HTU21D;54240;51.096;5.878;2023-11-21T00:52:18;9.75;-6.00
67358;HTU21D;54240;51.096;5.878;2023-11-21T00:54:44;9.75;-6.00
67358;HTU21D;54240;51.096;5.878;2023-11-21T00:57:10;9.80;-6.00
67358;HTU21D;54240;51.096;5.878;2023-11-21T00:59:37;9.82;-6.00
67358;HTU21D;54240;51.096;5.878;2023-11-21T01:02:03;9.83;-6.00
67358;HTU21D;54240;51.096;5.878;2023-11-21T01:04:31;9.83;-6.00
67358;HTU21D;54240;51.096;5.878;2023-11-21T01:06:58;9.82;-6.00
67358;HTU21D;54240;51.096;5.878;2023-11-21T01:09:23;9.80;-6.00
67358;HTU21D;54240;51.096;5.878;2023-11-21T01:11:49;9.77;-6.00
67358;HTU21D;54240;51.096;5.878;2023-11-21T01:14:15;9.77;-6.00
67358;HTU21D;54240;51.096;5.878;2023-11-21T01:16:43;9.75;-6.00
67358;HTU21D;54240;51.096;5.878;2023-11-21T01:19:09;9.74;-6.00
67358;HTU21D;54240;51.096;5.878;2023-11-21T01:21:35;9.75;-6.00
67358;HTU21D;54240;51.096;5.878;2023-11-21T01:24:01;9.80;-6.00
67358;HTU21D;54240;51.096;5.878;2023-11-21T01:26:26;9.83;-6.00
67358;HTU21D;54240;51.096;5.878;2023-11-21T01:28:52;9.85;-6.00
67358;HTU21D;54240;51.096;5.878;2023-11-21T01:31:18;9.91;-6.00
67358;HTU21D;54240;51.096;5.878;2023-11-21T01:33:46;9.94;-6.00
67358;HTU21D;54240;51.096;5.878;2023-11-21T01:36:12;10.03;-6.00
67358;HTU21D;54240;51.096;5.878;2023-11-21T01:38:37;10.00;-6.00
67358;HTU21D;54240;51.096;5.878;2023-11-21T01:41:04;10.00;-6.00
67358;HTU21D;54240;51.096;5.878;2023-11-21T01:43:30;9.98;-6.00
67358;HTU21D;54240;51.096;5.878;2023-11-21T01:45:57;9.99;-6.00
67358;HTU21D;54240;51.096;5.878;2023-11-21T01:48:24;9.97;-6.00
67358;HTU21D;54240;51.096;5.878;2023-11-21T01:50:50;9.96;-6.00
67358;HTU21D;54240;51.096;5.878;2023-11-21T01:53:16;9.93;-6.00
67358;HTU21D;54240;51.096;5.878;2023-11-21T01:55:42;9.93;-6.00
67358;HTU21D;54240;51.096;5.878;2023-11-21T01:58:10;9.93;-6.00
67358;HTU21D;54240;51.096;5.878;2023-11-21T02:00:37;9.97;-6.00
67358;HTU21D;54240;51.096;5.878;2023-11-21T02:03:04;10.22;-6.00
67358;HTU21D;54240;51.096;5.878;2023-11-21T02:05:30;10.34;-6.00
67358;HTU21D;54240;51.096;5.878;2023-11-21T02:07:58;10.39;-6.00
67358;HTU21D;54240;51.096;5.878;2023-11-21T02:10:24;10.20;-6.00
67358;HTU21D;54240;51.096;5.878;2023-11-21T02:12:50;10.34;-6.00
67358;HTU21D;54240;51.096;5.878;2023-11-21T02:15:16;10.44;-6.00
67358;HTU21D;54240;51.096;5.878;2023-11-21T02:17:46;10.35;-6.00
67358;HTU21D;54240;51.096;5.878;2023-11-21T02:20:13;10.36;-6.00
67358;HTU21D;54240;51.096;5.878;2023-11-21T02:22:50;10.41;-6.00
67358;HTU21D;54240;51.096;5.878;2023-11-21T02:25:21;10.40;-6.00
67358;HTU21D;54240;51.096;5.878;2023-11-21T02:27:48;10.33;-6.00
67358;HTU21D;54240;51.096;5.878;2023-11-21T02:30:15;10.36;-6.00
67358;HTU21D;54240;51.096;5.878;2023-11-21T02:32:41;10.36;-6.00
67358;HTU21D;54240;51.096;5.878;2023-11-21T02:35:08;10.38;-6.00
67358;HTU21D;54240;51.096;5.878;2023-11-21T02:37:34;10.35;-6.00
67358;HTU21D;54240;51.096;5.878;2023-11-21T02:40:01;10.34;-6.00
67358;HTU21D;54240;51.096;5.878;2023-11-21T02:42:33;10.28;-6.00
67358;HTU21D;54240;51.096;5.878;2023-11-21T02:44:59;10.24;-6.00
67358;HTU21D;54240;51.096;5.878;2023-11-21T02:47:24;10.25;-6.00
67358;HTU21D;54240;51.096;5.878;2023-11-21T02:49:51;10.25;-6.00
67358;HTU21D;54240;51.096;5.878;2023-11-21T02:52:18;10.21;-6.00
67358;HTU21D;54240;51.096;5.878;2023-11-21T02:54:45;10.18;-6.00
67358;HTU21D;54240;51.096;5.878;2023-11-21T02:57:11;10.16;-6.00
67358;HTU21D;54240;51.096;5.878;2023-11-21T02:59:36;10.20;-6.00
67358;HTU21D;54240;51.096;5.878;2023-11-21T03:02:02;10.23;-6.00
67358;HTU21D;54240;51.096;5.878;2023-11-21T03:04:28;10.26;-6.00
67358;HTU21D;54240;51.096;5.878;2023-11-21T03:06:54;10.29;-6.00
67358;HTU21D;54240;51.096;5.878;2023-11-21T03:09:20;10.29;-6.00
67358;HTU21D;54240;51.096;5.878;2023-11-21T03:11:46;10.31;-6.00
67358;HTU21D;54240;51.096;5.878;2023-11-21T03:14:11;10.36;-6.00
67358;HTU21D;54240;51.096;5.878;2023-11-21T03:16:38;10.37;-6.00
67358;HTU21D;54240;51.096;5.878;2023-11-21T03:19:04;10.37;-6.00
67358;HTU21D;54240;51.096;5.878;2023-11-21T03:21:30;10.36;-6.00
67358;HTU21D;54240;51.096;5.878;2023-11-21T03:23:56;10.33;-6.00
67358;HTU21D;54240;51.096;5.878;2023-11-21T03:26:22;10.25;-6.00
67358;HTU21D;54240;51.096;5.878;2023-11-21T03:28:48;10.23;-6.00
67358;HTU21D;54240;51.096;5.878;2023-11-21T03:31:15;10.22;-6.00
67358;HTU21D;54240;51.096;5.878;2023-11-21T03:33:42;10.18;-6.00
67358;HTU21D;54240;51.096;5.878;2023-11-21T03:36:09;10.23;-6.00
67358;HTU21D;54240;51.096;5.878;2023-11-21T03:38:35;10.25;-6.00
67358;HTU21D;54240;51.096;5.878;2023-11-21T03:41:01;10.30;-6.00
67358;HTU21D;54240;51.096;5.878;2023-11-21T03:43:28;10.36;-6.00
67358;HTU21D;54240;51.096;5.878;2023-11-21T03:45:54;10.43;-6.00
67358;HTU21D;54240;51.096;5.878;2023-11-21T03:48:19;10.50;-6.00
67358;HTU21D;54240;51.096;5.878;2023-11-21T03:50:45;10.53;-6.00
67358;HTU21D;54240;51.096;5.878;2023-11-21T03:53:12;10.54;-6.00
67358;HTU21D;54240;51.096;5.878;2023-11-21T03:55:38;10.60;-6.00
67358;HTU21D;54240;51.096;5.878;2023-11-21T03:58:04;10.56;-6.00
67358;HTU21D;54240;51.096;5.878;2023-11-21T04:00:31;10.63;-6.00
67358;HTU21D;54240;51.096;5.878;2023-11-21T04:02:56;10.62;-6.00
67358;HTU21D;54240;51.096;5.878;2023-11-21T04:05:23;10.58;-6.00
67358;HTU21D;54240;51.096;5.878;2023-11-21T04:07:51;10.52;-6.00
67358;HTU21D;54240;51.096;5.878;2023-11-21T04:10:18;10.44;-6.00
67358;HTU21D;54240;51.096;5.878;2023-11-21T04:12:44;10.43;-6.00
67358;HTU21D;54240;51.096;5.878;2023-11-21T04:15:11;10.44;-6.00
67358;HTU21D;54240;51.096;5.878;2023-11-21T04:17:39;10.41;-6.00
67358;HTU21D;54240;51.096;5.878;2023-11-21T04:20:06;10.42;-6.00
67358;HTU21D;54240;51.096;5.878;2023-11-21T04:22:39;10.43;-6.00
67358;HTU21D;54240;51.096;5.878;2023-11-21T04:25:10;10.50;-6.00
67358;HTU21D;54240;51.096;5.878;2023-11-21T04:27:38;10.43;-6.00
67358;HTU21D;54240;51.096;5.878;2023-11-21T04:30:05;10.44;-6.00
67358;HTU21D;54240;51.096;5.878;2023-11-21T04:32:31;10.42;-6.00
67358;HTU21D;54240;51.096;5.878;2023-11-21T04:34:57;10.38;-6.00
67358;HTU21D;54240;51.096;5.878;2023-11-21T04:37:23;10.34;-6.00
67358;HTU21D;54240;51.096;5.878;2023-11-21T04:39:50;10.35;-6.00
67358;HTU21D;54240;51.096;5.878;2023-11-21T04:42:16;10.38;-6.00
67358;HTU21D;54240;51.096;5.878;2023-11-21T04:44:42;10.39;-6.00
67358;HTU21D;54240;51.096;5.878;2023-11-21T04:47:09;10.41;-6.00
67358;HTU21D;54240;51.096;5.878;2023-11-21T04:49:35;10.43;-6.00
67358;HTU21D;54240;51.096;5.878;2023-11-21T04:52:01;10.46;-6.00
67358;HTU21D;54240;51.096;5.878;2023-11-21T04:54:30;10.52;-6.00
67358;HTU21D;54240;51.096;5.878;2023-11-21T04:56:56;10.59;-6.00
67358;HTU21D;54240;51.096;5.878;2023-11-21T04:59:22;10.65;-6.00
67358;HTU21D;54240;51.096;5.878;2023-11-21T05:01:53;10.67;-6.00
67358;HTU21D;54240;51.096;5.878;2023-11-21T05:04:20;10.68;-6.00
67358;HTU21D;54240;51.096;5.878;2023-11-21T05:06:48;10.67;-6.00
67358;HTU21D;54240;51.096;5.878;2023-11-21T05:09:14;10.65;-6.00
67358;HTU21D;54240;51.096;5.878;2023-11-21T05:11:40;10.66;-6.00
67358;HTU21D;54240;51.096;5.878;2023-11-21T05:14:06;10.66;-6.00
67358;HTU21D;54240;51.096;5.878;2023-11-21T05:16:32;10.63;-6.00
67358;HTU21D;54240;51.096;5.878;2023-11-21T05:18:59;10.57;-6.00
67358;HTU21D;54240;51.096;5.878;2023-11-21T05:21:27;10.39;-6.00
67358;HTU21D;54240;51.096;5.878;2023-11-21T05:23:53;10.22;-6.00
67358;HTU21D;54240;51.096;5.878;2023-11-21T05:26:19;10.23;-6.00
67358;HTU21D;54240;51.096;5.878;2023-11-21T05:28:45;10.13;-6.00
67358;HTU21D;54240;51.096;5.878;2023-11-21T05:31:10;10.15;-6.00
67358;HTU21D;54240;51.096;5.878;2023-11-21T05:33:36;10.24;-6.00
67358;HTU21D;54240;51.096;5.878;2023-11-21T05:36:03;10.28;-6.00
67358;HTU21D;54240;51.096;5.878;2023-11-21T05:38:29;10.38;-6.00
67358;HTU21D;54240;51.096;5.878;2023-11-21T05:40:55;10.45;-6.00
67358;HTU21D;54240;51.096;5.878;2023-11-21T05:43:21;10.53;-6.00
67358;HTU21D;54240;51.096;5.878;2023-11-21T05:45:47;10.54;-6.00
67358;HTU21D;54240;51.096;5.878;2023-11-21T05:48:13;10.58;-6.00
67358;HTU21D;54240;51.096;5.878;2023-11-21T05:50:39;10.58;-6.00
67358;HTU21D;54240;51.096;5.878;2023-11-21T05:53:05;10.59;-6.00
67358;HTU21D;54240;51.096;5.878;2023-11-21T05:55:30;10.54;-6.00
67358;HTU21D;54240;51.096;5.878;2023-11-21T05:57:56;10.52;-6.00
67358;HTU21D;54240;51.096;5.878;2023-11-21T06:00:22;10.52;-6.00
67358;HTU21D;54240;51.096;5.878;2023-11-21T06:02:52;10.48;-6.00
67358;HTU21D;54240;51.096;5.878;2023-11-21T06:05:20;10.51;-6.00
67358;HTU21D;54240;51.096;5.878;2023-11-21T06:07:50;10.53;-6.00
67358;HTU21D;54240;51.096;5.878;2023-11-21T06:10:16;10.49;-6.00
67358;HTU21D;54240;51.096;5.878;2023-11-21T06:12:45;10.44;-6.00
67358;HTU21D;54240;51.096;5.878;2023-11-21T06:15:11;10.49;-6.00
67358;HTU21D;54240;51.096;5.878;2023-11-21T06:17:41;10.46;-6.00
67358;HTU21D;54240;51.096;5.878;2023-11-21T06:20:09;10.50;-6.00
67358;HTU21D;54240;51.096;5.878;2023-11-21T06:22:38;10.53;-6.00
67358;HTU21D;54240;51.096;5.878;2023-11-21T06:25:05;10.55;-6.00
67358;HTU21D;54240;51.096;5.878;2023-11-21T06:27:32;10.58;-6.00
67358;HTU21D;54240;51.096;5.878;2023-11-21T06:29:58;10.55;-6.00
67358;HTU21D;54240;51.096;5.878;2023-11-21T06:32:24;10.55;-6.00
67358;HTU21D;54240;51.096;5.878;2023-11-21T06:34:50;10.55;-6.00
67358;HTU21D;54240;51.096;5.878;2023-11-21T06:37:16;10.55;-6.00
67358;HTU21D;54240;51.096;5.878;2023-11-21T06:39:42;10.54;-6.00
67358;HTU21D;54240;51.096;5.878;2023-11-21T06:42:08;10.50;-6.00
67358;HTU21D;54240;51.096;5.878;2023-11-21T06:44:34;10.56;-6.00
67358;HTU21D;54240;51.096;5.878;2023-11-21T06:47:01;10.68;-6.00
67358;HTU21D;54240;51.096;5.878;2023-11-21T06:49:26;10.71;-6.00
67358;HTU21D;54240;51.096;5.878;2023-11-21T06:51:52;10.72;-6.00
67358;HTU21D;54240;51.096;5.878;2023-11-21T06:54:19;10.72;-6.00
67358;HTU21D;54240;51.096;5.878;2023-11-21T06:56:46;10.71;-6.00
67358;HTU21D;54240;51.096;5.878;2023-11-21T06:59:12;10.64;-6.00
67358;HTU21D;54240;51.096;5.878;2023-11-21T07:01:38;10.65;-6.00
67358;HTU21D;54240;51.096;5.878;2023-11-21T07:04:05;10.70;-6.00
67358;HTU21D;54240;51.096;5.878;2023-11-21T07:06:32;10.74;-6.00
67358;HTU21D;54240;51.096;5.878;2023-11-21T07:08:58;10.77;-6.00
67358;HTU21D;54240;51.096;5.878;2023-11-21T07:11:24;10.77;-6.00
67358;HTU21D;54240;51.096;5.878;2023-11-21T07:13:50;10.75;-6.00
67358;HTU21D;54240;51.096;5.878;2023-11-21T07:16:18;10.75;-6.00
67358;HTU21D;54240;51.096;5.878;2023-11-21T07:18:44;10.80;-6.00
67358;HTU21D;54240;51.096;5.878;2023-11-21T07:21:11;10.87;-6.00
67358;HTU21D;54240;51.096;5.878;2023-11-21T07:23:41;10.90;-6.00
67358;HTU21D;54240;51.096;5.878;2023-11-21T07:26:07;10.92;-6.00
67358;HTU21D;54240;51.096;5.878;2023-11-21T07:28:35;10.94;-6.00
67358;HTU21D;54240;51.096;5.878;2023-11-21T07:31:01;10.89;-6.00
67358;HTU21D;54240;51.096;5.878;2023-11-21T07:33:28;10.85;-6.00
67358;HTU21D;54240;51.096;5.878;2023-11-21T07:35:54;10.88;-6.00
67358;HTU21D;54240;51.096;5.878;2023-11-21T07:38:20;10.95;-6.00
67358;HTU21D;54240;51.096;5.878;2023-11-21T07:40:46;10.98;-6.00
67358;HTU21D;54240;51.096;5.878;2023-11-21T07:43:12;10.97;-6.00
67358;HTU21D;54240;51.096;5.878;2023-11-21T07:45:38;10.96;-6.00
67358;HTU21D;54240;51.096;5.878;2023-11-21T07:48:04;10.93;-6.00
67358;HTU21D;54240;51.096;5.878;2023-11-21T07:50:30;10.92;-6.00
67358;HTU21D;54240;51.096;5.878;2023-11-21T07:52:57;10.95;-6.00
67358;HTU21D;54240;51.096;5.878;2023-11-21T07:55:23;11.00;-6.00
67358;HTU21D;54240;51.096;5.878;2023-11-21T07:57:50;11.07;-6.00
67358;HTU21D;54240;51.096;5.878;2023-11-21T08:00:16;11.12;-6.00
67358;HTU21D;54240;51.096;5.878;2023-11-21T08:02:42;11.15;-6.00
67358;HTU21D;54240;51.096;5.878;2023-11-21T08:05:09;11.11;-6.00
67358;HTU21D;54240;51.096;5.878;2023-11-21T08:07:34;11.14;-6.00
67358;HTU21D;54240;51.096;5.878;2023-11-21T08:10:00;11.13;-6.00
67358;HTU21D;54240;51.096;5.878;2023-11-21T08:12:26;11.10;-6.00
67358;HTU21D;54240;51.096;5.878;2023-11-21T08:14:53;11.11;-6.00
67358;HTU21D;54240;51.096;5.878;2023-11-21T08:17:19;11.16;-6.00
67358;HTU21D;54240;51.096;5.878;2023-11-21T08:19:46;11.24;-6.00
67358;HTU21D;54240;51.096;5.878;2023-11-21T08:22:17;11.29;-6.00
67358;HTU21D;54240;51.096;5.878;2023-11-21T08:24:44;11.40;-6.00
67358;HTU21D;54240;51.096;5.878;2023-11-21T08:27:10;11.38;-6.00
67358;HTU21D;54240;51.096;5.878;2023-11-21T08:29:36;11.38;-6.00
67358;HTU21D;54240;51.096;5.878;2023-11-21T08:32:02;11.42;-6.00
67358;HTU21D;54240;51.096;5.878;2023-11-21T08:34:28;11.49;-6.00
67358;HTU21D;54240;51.096;5.878;2023-11-21T08:36:54;11.43;-6.00
67358;HTU21D;54240;51.096;5.878;2023-11-21T08:39:22;11.37;-6.00
67358;HTU21D;54240;51.096;5.878;2023-11-21T08:41:50;11.42;-6.00
67358;HTU21D;54240;51.096;5.878;2023-11-21T08:44:19;11.38;-6.00
67358;HTU21D;54240;51.096;5.878;2023-11-21T08:46:45;11.40;-6.00
67358;HTU21D;54240;51.096;5.878;2023-11-21T08:49:12;11.36;-6.00
67358;HTU21D;54240;51.096;5.878;2023-11-21T08:51:38;11.36;-6.00
67358;HTU21D;54240;51.096;5.878;2023-11-21T08:54:05;11.31;-6.00
67358;HTU21D;54240;51.096;5.878;2023-11-21T08:56:34;11.39;-6.00
67358;HTU21D;54240;51.096;5.878;2023-11-21T08:59:00;11.46;-6.00
67358;HTU21D;54240;51.096;5.878;2023-11-21T09:01:31;11.51;-6.00
67358;HTU21D;54240;51.096;5.878;2023-11-21T09:03:57;11.55;-6.00
67358;HTU21D;54240;51.096;5.878;2023-11-21T09:06:24;11.58;-6.00
67358;HTU21D;54240;51.096;5.878;2023-11-21T09:08:50;11.59;-6.00
67358;HTU21D;54240;51.096;5.878;2023-11-21T09:11:17;11.53;-6.00
67358;HTU21D;54240;51.096;5.878;2023-11-21T09:13:42;11.56;-6.00
67358;HTU21D;54240;51.096;5.878;2023-11-21T09:16:08;11.54;-6.00
67358;HTU21D;54240;51.096;5.878;2023-11-21T09:18:34;11.59;-6.00
67358;HTU21D;54240;51.096;5.878;2023-11-21T09:21:00;11.68;-6.00
67358;HTU21D;54240;51.096;5.878;2023-11-21T09:23:26;11.74;-6.00
67358;HTU21D;54240;51.096;5.878;2023-11-21T09:25:52;11.76;-6.00
67358;HTU21D;54240;51.096;5.878;2023-11-21T09:28:22;11.79;-6.00
67358;HTU21D;54240;51.096;5.878;2023-11-21T09:30:48;11.84;-6.00
67358;HTU21D;54240;51.096;5.878;2023-11-21T09:33:16;11.83;-6.00
67358;HTU21D;54240;51.096;5.878;2023-11-21T09:35:42;11.90;-6.00
67358;HTU21D;54240;51.096;5.878;2023-11-21T09:38:09;11.97;-6.00
67358;HTU21D;54240;51.096;5.878;2023-11-21T09:40:38;11.99;-6.00
67358;HTU21D;54240;51.096;5.878;2023-11-21T09:43:07;12.04;-6.00
67358;HTU21D;54240;51.096;5.878;2023-11-21T09:45:38;12.06;-6.00
67358;HTU21D;54240;51.096;5.878;2023-11-21T09:48:05;12.07;-6.00
67358;HTU21D;54240;51.096;5.878;2023-11-21T09:50:32;12.07;-6.00
67358;HTU21D;54240;51.096;5.878;2023-11-21T09:53:13;12.12;-6.00
67358;HTU21D;54240;51.096;5.878;2023-11-21T09:55:45;12.08;-6.00
67358;HTU21D;54240;51.096;5.878;2023-11-21T09:58:14;12.06;-6.00
67358;HTU21D;54240;51.096;5.878;2023-11-21T10:00:44;12.14;-6.00
67358;HTU21D;54240;51.096;5.878;2023-11-21T10:03:11;12.21;-6.00
67358;HTU21D;54240;51.096;5.878;2023-11-21T10:05:38;12.25;-6.00
67358;HTU21D;54240;51.096;5.878;2023-11-21T10:08:11;12.26;-6.00
67358;HTU21D;54240;51.096;5.878;2023-11-21T10:10:37;12.28;-6.00
67358;HTU21D;54240;51.096;5.878;2023-11-21T10:13:06;12.28;-6.00
67358;HTU21D;54240;51.096;5.878;2023-11-21T10:15:34;12.34;-6.00
67358;HTU21D;54240;51.096;5.878;2023-11-21T10:18:04;12.34;-6.00
67358;HTU21D;54240;51.096;5.878;2023-11-21T10:20:32;12.26;-6.00
67358;HTU21D;54240;51.096;5.878;2023-11-21T10:23:03;12.21;-6.00
67358;HTU21D;54240;51.096;5.878;2023-11-21T10:25:30;12.27;-6.00
67358;HTU21D;54240;51.096;5.878;2023-11-21T10:28:02;12.33;-6.00
67358;HTU21D;54240;51.096;5.878;2023-11-21T10:30:38;12.36;-6.00
67358;HTU21D;54240;51.096;5.878;2023-11-21T10:33:05;12.34;-6.00
67358;HTU21D;54240;51.096;5.878;2023-11-21T10:35:45;12.27;-6.00
67358;HTU21D;54240;51.096;5.878;2023-11-21T10:38:21;12.28;-6.00
67358;HTU21D;54240;51.096;5.878;2023-11-21T10:40:50;12.22;-6.00
67358;HTU21D;54240;51.096;5.878;2023-11-21T10:43:17;12.25;-6.00
67358;HTU21D;54240;51.096;5.878;2023-11-21T10:45:43;12.28;-6.00
67358;HTU21D;54240;51.096;5.878;2023-11-21T10:48:12;12.30;-6.00
67358;HTU21D;54240;51.096;5.878;2023-11-21T10:50:41;12.33;-6.00
67358;HTU21D;54240;51.096;5.878;2023-11-21T10:53:07;12.36;-6.00
67358;HTU21D;54240;51.096;5.878;2023-11-21T10:55:34;12.42;-6.00
67358;HTU21D;54240;51.096;5.878;2023-11-21T10:58:02;12.45;-6.00
67358;HTU21D;54240;51.096;5.878;2023-11-21T11:00:32;12.52;-6.00
67358;HTU21D;54240;51.096;5.878;2023-11-21T11:02:58;12.51;-6.00
67358;HTU21D;54240;51.096;5.878;2023-11-21T11:05:27;12.49;-6.00
67358;HTU21D;54240;51.096;5.878;2023-11-21T11:08:14;12.48;-6.00
67358;HTU21D;54240;51.096;5.878;2023-11-21T11:10:45;12.51;-6.00
67358;HTU21D;54240;51.096;5.878;2023-11-21T11:13:13;12.56;-6.00
67358;HTU21D;54240;51.096;5.878;2023-11-21T11:15:40;12.61;-6.00
67358;HTU21D;54240;51.096;5.878;2023-11-21T11:18:07;12.57;-6.00
67358;HTU21D;54240;51.096;5.878;2023-11-21T11:20:37;12.49;-6.00
67358;HTU21D;54240;51.096;5.878;2023-11-21T11:23:49;12.51;-6.00
67358;HTU21D;54240;51.096;5.878;2023-11-21T11:26:54;12.55;-6.00
67358;HTU21D;54240;51.096;5.878;2023-11-21T11:30:03;12.52;-6.00
67358;HTU21D;54240;51.096;5.878;2023-11-21T11:33:04;12.55;-6.00
67358;HTU21D;54240;51.096;5.878;2023-11-21T11:38:08;12.67;-6.00
67358;HTU21D;54240;51.096;5.878;2023-11-21T11:40:45;12.67;-6.00
67358;HTU21D;54240;51.096;5.878;2023-11-21T11:43:11;12.71;-6.00
67358;HTU21D;54240;51.096;5.878;2023-11-21T11:45:38;12.60;-6.00
67358;HTU21D;54240;51.096;5.878;2023-11-21T11:48:07;12.64;-6.00
67358;HTU21D;54240;51.096;5.878;2023-11-21T11:50:33;12.64;-6.00
67358;HTU21D;54240;51.096;5.878;2023-11-21T11:53:13;12.58;-6.00
67358;HTU21D;54240;51.096;5.878;2023-11-21T11:55:39;12.56;-6.00
67358;HTU21D;54240;51.096;5.878;2023-11-21T11:58:06;12.36;-6.00
67358;HTU21D;54240;51.096;5.878;2023-11-21T12:03:02;12.40;-6.00
67358;HTU21D;54240;51.096;5.878;2023-11-21T12:05:32;12.48;-6.00
67358;HTU21D;54240;51.096;5.878;2023-11-21T12:08:02;12.49;-6.00
67358;HTU21D;54240;51.096;5.878;2023-11-21T12:10:36;12.43;-6.00
67358;HTU21D;54240;51.096;5.878;2023-11-21T12:13:06;12.41;-6.00
67358;HTU21D;54240;51.096;5.878;2023-11-21T12:15:34;12.35;-6.00
67358;HTU21D;54240;51.096;5.878;2023-11-21T12:18:00;12.12;-6.00
67358;HTU21D;54240;51.096;5.878;2023-11-21T12:20:27;12.23;-6.00
67358;HTU21D;54240;51.096;5.878;2023-11-21T12:22:55;12.26;-6.00
67358;HTU21D;54240;51.096;5.878;2023-11-21T12:25:25;12.28;-6.00
67358;HTU21D;54240;51.096;5.878;2023-11-21T12:27:55;12.27;-6.00
67358;HTU21D;54240;51.096;5.878;2023-11-21T12:30:23;12.22;-6.00
67358;HTU21D;54240;51.096;5.878;2023-11-21T12:32:52;12.45;-6.00
67358;HTU21D;54240;51.096;5.878;2023-11-21T12:35:19;12.52;-6.00
67358;HTU21D;54240;51.096;5.878;2023-11-21T12:37:48;12.64;-6.00
67358;HTU21D;54240;51.096;5.878;2023-11-21T12:40:15;12.71;-6.00
67358;HTU21D;54240;51.096;5.878;2023-11-21T12:42:42;12.74;-6.00
67358;HTU21D;54240;51.096;5.878;2023-11-21T12:50:26;12.69;-6.00
67358;HTU21D;54240;51.096;5.878;2023-11-21T12:52:59;12.65;-6.00
67358;HTU21D;54240;51.096;5.878;2023-11-21T12:55:25;12.62;-6.00
67358;HTU21D;54240;51.096;5.878;2023-11-21T12:57:53;12.55;-6.00
67358;HTU21D;54240;51.096;5.878;2023-11-21T13:00:45;12.51;-6.00
67358;HTU21D;54240;51.096;5.878;2023-11-21T13:03:13;12.38;-6.00
67358;HTU21D;54240;51.096;5.878;2023-11-21T13:05:44;12.36;-6.00
67358;HTU21D;54240;51.096;5.878;2023-11-21T13:08:12;12.34;-6.00
67358;HTU21D;54240;51.096;5.878;2023-11-21T13:10:40;12.17;-6.00
67358;HTU21D;54240;51.096;5.878;2023-11-21T13:13:10;12.15;-6.00
67358;HTU21D;54240;51.096;5.878;2023-11-21T13:15:40;12.21;-6.00
67358;HTU21D;54240;51.096;5.878;2023-11-21T13:18:07;12.26;-6.00
67358;HTU21D;54240;51.096;5.878;2023-11-21T13:20:33;12.33;-6.00
67358;HTU21D;54240;51.096;5.878;2023-11-21T13:23:00;12.31;-6.00
67358;HTU21D;54240;51.096;5.878;2023-11-21T13:25:28;12.26;-6.00
67358;HTU21D;54240;51.096;5.878;2023-11-21T13:27:55;12.34;-6.00
67358;HTU21D;54240;51.096;5.878;2023-11-21T13:30:21;12.27;-6.00
67358;HTU21D;54240;51.096;5.878;2023-11-21T13:33:08;12.21;-6.00
67358;HTU21D;54240;51.096;5.878;2023-11-21T13:35:37;12.10;-6.00
67358;HTU21D;54240;51.096;5.878;2023-11-21T13:38:09;12.08;-6.00
67358;HTU21D;54240;51.096;5.878;2023-11-21T13:40:37;12.08;-6.00
67358;HTU21D;54240;51.096;5.878;2023-11-21T13:43:10;12.01;-6.00
67358;HTU21D;54240;51.096;5.878;2023-11-21T13:45:38;11.99;-6.00
67358;HTU21D;54240;51.096;5.878;2023-11-21T13:48:08;11.97;-6.00
67358;HTU21D;54240;51.096;5.878;2023-11-21T13:50:36;11.92;-6.00
67358;HTU21D;54240;51.096;5.878;2023-11-21T13:53:03;11.90;-6.00
67358;HTU21D;54240;51.096;5.878;2023-11-21T13:55:48;11.88;-6.00
67358;HTU21D;54240;51.096;5.878;2023-11-21T13:58:16;11.88;-6.00
67358;HTU21D;54240;51.096;5.878;2023-11-21T14:00:49;11.81;-6.00
67358;HTU21D;54240;51.096;5.878;2023-11-21T14:03:25;11.81;-6.00
67358;HTU21D;54240;51.096;5.878;2023-11-21T14:06:05;11.86;-6.00
67358;HTU21D;54240;51.096;5.878;2023-11-21T14:08:40;11.87;-6.00
67358;HTU21D;54240;51.096;5.878;2023-11-21T14:11:07;11.87;-6.00
67358;HTU21D;54240;51.096;5.878;2023-11-21T14:13:33;11.78;-6.00
67358;HTU21D;54240;51.096;5.878;2023-11-21T14:15:59;11.76;-6.00
67358;HTU21D;54240;51.096;5.878;2023-11-21T14:18:27;11.79;-6.00
67358;HTU21D;54240;51.096;5.878;2023-11-21T14:21:00;11.90;-6.00
67358;HTU21D;54240;51.096;5.878;2023-11-21T14:23:26;11.87;-6.00
67358;HTU21D;54240;51.096;5.878;2023-11-21T14:25:54;11.90;-6.00
67358;HTU21D;54240;51.096;5.878;2023-11-21T14:28:20;11.94;-6.00
67358;HTU21D;54240;51.096;5.878;2023-11-21T14:30:46;11.96;-6.00
67358;HTU21D;54240;51.096;5.878;2023-11-21T14:33:12;11.98;-6.00
67358;HTU21D;54240;51.096;5.878;2023-11-21T14:35:38;11.99;-6.00
67358;HTU21D;54240;51.096;5.878;2023-11-21T14:38:04;12.07;-6.00
67358;HTU21D;54240;51.096;5.878;2023-11-21T14:40:33;12.04;-6.00
67358;HTU21D;54240;51.096;5.878;2023-11-21T14:43:04;11.98;-6.00
67358;HTU21D;54240;51.096;5.878;2023-11-21T14:45:34;12.00;-6.00
67358;HTU21D;54240;51.096;5.878;2023-11-21T14:48:00;11.99;-6.00
67358;HTU21D;54240;51.096;5.878;2023-11-21T14:50:41;11.96;-6.00
67358;HTU21D;54240;51.096;5.878;2023-11-21T14:53:12;11.96;-6.00
67358;HTU21D;54240;51.096;5.878;2023-11-21T14:55:39;11.92;-6.00
67358;HTU21D;54240;51.096;5.878;2023-11-21T14:58:22;11.84;-6.00
67358;HTU21D;54240;51.096;5.878;2023-11-21T15:00:55;11.77;-6.00
67358;HTU21D;54240;51.096;5.878;2023-11-21T15:03:27;11.73;-6.00
67358;HTU21D;54240;51.096;5.878;2023-11-21T15:06:02;11.71;-6.00
67358;HTU21D;54240;51.096;5.878;2023-11-21T15:08:51;11.68;-6.00
67358;HTU21D;54240;51.096;5.878;2023-11-21T15:11:33;11.71;-6.00
67358;HTU21D;54240;51.096;5.878;2023-11-21T15:13:59;11.75;-6.00
67358;HTU21D;54240;51.096;5.878;2023-11-21T15:16:33;11.71;-6.00
67358;HTU21D;54240;51.096;5.878;2023-11-21T15:18:59;11.68;-6.00
67358;HTU21D;54240;51.096;5.878;2023-11-21T15:21:25;11.71;-6.00
67358;HTU21D;54240;51.096;5.878;2023-11-21T15:23:51;11.78;-6.00
67358;HTU21D;54240;51.096;5.878;2023-11-21T15:26:17;11.77;-6.00
67358;HTU21D;54240;51.096;5.878;2023-11-21T15:28:43;11.77;-6.00
67358;HTU21D;54240;51.096;5.878;2023-11-21T15:31:09;11.87;-6.00
67358;HTU21D;54240;51.096;5.878;2023-11-21T15:33:35;11.88;-6.00